Time;durP1;ratioP1;P1;durP2;ratioP2;P2;SDS_P1;SDS_P2;PMS_P1;PMS_P2;Temp;Humidity;BMP_temperature;BMP_pressure;BME280_temperature;BME280_humidity;BME280_pressure;Samples;Min_cycle;Max_cycle;Signal;HPM_P1;HPM_P2
2023/05/06 00:00:55;;;;;;;13.32;11.93;;;11.00;99.90;;;;;;7374880;19;20048;-62
2023/05/06 00:03:22;;;;;;;12.85;11.55;;;11.00;99.90;;;;;;7369686;19;20030;-62
2023/05/06 00:05:49;;;;;;;12.18;10.93;;;11.00;99.90;;;;;;7371427;19;20035;-62
2023/05/06 00:08:15;;;;;;;12.50;11.30;;;10.90;99.90;;;;;;7369080;19;20026;-62
2023/05/06 00:10:43;;;;;;;13.43;11.95;;;10.90;99.90;;;;;;7371640;19;20018;-61
2023/05/06 00:13:10;;;;;;;13.23;11.93;;;10.90;99.90;;;;;;7371145;19;20049;-62
2023/05/06 00:15:37;;;;;;;12.52;11.23;;;10.90;99.90;;;;;;7369319;19;20018;-62
2023/05/06 00:18:06;;;;;;;12.82;11.52;;;10.80;99.90;;;;;;7370762;19;20436;-62
2023/05/06 00:20:32;;;;;;;13.48;11.73;;;10.80;99.90;;;;;;7372820;19;20025;-62
2023/05/06 00:22:58;;;;;;;14.73;12.13;;;10.70;99.90;;;;;;7372367;19;20022;-62
2023/05/06 00:25:25;;;;;;;14.52;11.75;;;10.70;99.90;;;;;;7365718;19;20110;-62
2023/05/06 00:27:52;;;;;;;12.35;11.15;;;10.70;99.90;;;;;;7373804;19;20026;-63
2023/05/06 00:30:18;;;;;;;12.23;11.02;;;10.60;99.90;;;;;;7370302;19;20018;-62
2023/05/06 00:32:45;;;;;;;12.23;10.93;;;10.60;99.90;;;;;;7366314;19;20031;-62
2023/05/06 00:35:11;;;;;;;13.93;11.10;;;10.60;99.90;;;;;;7365472;19;20045;-62
2023/05/06 00:37:37;;;;;;;14.10;12.68;;;10.50;99.90;;;;;;7367054;19;20474;-62
2023/05/06 00:40:04;;;;;;;13.93;12.57;;;10.50;99.90;;;;;;7370641;19;20026;-62
2023/05/06 00:42:31;;;;;;;15.35;13.55;;;10.50;99.90;;;;;;7369764;19;20019;-62
2023/05/06 00:44:58;;;;;;;14.15;12.75;;;10.40;99.90;;;;;;7368159;19;20031;-63
2023/05/06 00:47:25;;;;;;;14.38;12.90;;;10.50;99.90;;;;;;7369502;19;20362;-63
2023/05/06 00:49:51;;;;;;;14.68;12.85;;;10.50;99.90;;;;;;7367502;19;20025;-63
2023/05/06 00:52:19;;;;;;;13.68;12.27;;;10.40;99.90;;;;;;7370306;19;20022;-63
2023/05/06 00:54:46;;;;;;;13.15;11.52;;;10.40;99.90;;;;;;7362198;19;20537;-63
2023/05/06 00:57:13;;;;;;;12.15;10.95;;;10.30;99.90;;;;;;7366224;19;20018;-63
2023/05/06 00:59:40;;;;;;;11.57;10.38;;;10.30;99.90;;;;;;7360864;19;20037;-63
2023/05/06 01:02:08;;;;;;;11.02;9.95;;;10.40;99.90;;;;;;7369574;19;20015;-62
2023/05/06 01:04:37;;;;;;;12.63;11.35;;;10.40;99.90;;;;;;7368772;19;20015;-62
2023/05/06 01:07:16;;;;;;;11.70;10.52;;;10.50;99.90;;;;;;7369158;19;20019;-62
2023/05/06 01:09:54;;;;;;;11.90;10.80;;;10.50;99.90;;;;;;7366867;19;20018;-62
2023/05/06 01:12:31;;;;;;;13.43;11.35;;;10.50;99.90;;;;;;7370988;19;20014;-62
2023/05/06 01:15:08;;;;;;;12.02;10.82;;;10.60;99.90;;;;;;7365354;19;20022;-62
2023/05/06 01:17:45;;;;;;;14.60;12.40;;;10.70;99.90;;;;;;7361702;19;20022;-62
2023/05/06 01:20:14;;;;;;;13.35;11.95;;;10.80;99.90;;;;;;7359898;19;20082;-62
2023/05/06 01:22:40;;;;;;;13.98;12.57;;;10.80;99.90;;;;;;7364312;19;20025;-62
2023/05/06 01:25:07;;;;;;;13.32;11.20;;;10.80;99.90;;;;;;7364612;19;20353;-63
2023/05/06 01:27:33;;;;;;;13.15;11.65;;;10.80;99.90;;;;;;7365997;19;20025;-63
2023/05/06 01:30:00;;;;;;;12.82;11.38;;;10.80;99.90;;;;;;7362476;19;20014;-63
2023/05/06 01:32:40;;;;;;;13.80;11.73;;;10.70;99.90;;;;;;7365438;19;20077;-63
2023/05/06 01:35:14;;;;;;;14.60;13.07;;;10.70;99.90;;;;;;7364408;19;20033;-63
2023/05/06 01:38:10;;;;;;;15.10;12.30;;;10.70;99.90;;;;;;7366357;19;20834;-63
2023/05/06 01:40:42;;;;;;;14.10;12.70;;;10.60;99.90;;;;;;7365741;19;20019;-63
2023/05/06 01:43:11;;;;;;;13.48;11.60;;;10.60;99.90;;;;;;7365613;19;20018;-63
2023/05/06 01:45:39;;;;;;;12.88;11.60;;;10.50;99.90;;;;;;7361949;19;20370;-63
2023/05/06 01:48:06;;;;;;;12.50;11.20;;;10.50;99.90;;;;;;7368653;19;20026;-63
2023/05/06 01:50:32;;;;;;;12.68;11.38;;;10.40;99.90;;;;;;7366999;19;20018;-63
2023/05/06 01:53:01;;;;;;;13.82;12.32;;;10.30;99.90;;;;;;7369089;19;20023;-63
2023/05/06 01:55:29;;;;;;;14.25;12.65;;;10.30;99.90;;;;;;7364175;19;20474;-63
2023/05/06 01:57:57;;;;;;;13.68;12.30;;;10.30;99.90;;;;;;7365105;19;20015;-63
2023/05/06 02:00:25;;;;;;;13.40;12.00;;;10.20;99.90;;;;;;7361162;19;20018;-64
2023/05/06 02:02:55;;;;;;;15.40;13.82;;;10.20;99.90;;;;;;7367994;19;20015;-64
2023/05/06 02:05:21;;;;;;;15.05;13.00;;;10.20;99.90;;;;;;7357397;19;20074;-64
2023/05/06 02:07:52;;;;;;;14.77;13.13;;;10.20;99.90;;;;;;7372565;19;20022;-62
2023/05/06 02:10:19;;;;;;;14.77;13.32;;;10.20;99.90;;;;;;7372126;19;20132;-62
2023/05/06 02:12:51;;;;;;;15.40;12.48;;;10.20;99.90;;;;;;7372997;19;20029;-62
2023/05/06 02:15:18;;;;;;;14.13;12.65;;;10.20;99.90;;;;;;7369287;19;20816;-62
2023/05/06 02:17:45;;;;;;;17.27;14.35;;;10.20;99.90;;;;;;7374468;19;20018;-62
2023/05/06 02:20:11;;;;;;;16.67;14.98;;;10.20;99.90;;;;;;7371883;19;20519;-62
2023/05/06 02:22:37;;;;;;;16.38;13.90;;;10.20;99.90;;;;;;7369741;19;21192;-63
2023/05/06 02:25:05;;;;;;;15.25;13.65;;;10.20;99.90;;;;;;7368818;19;20892;-64
2023/05/06 02:27:31;;;;;;;16.67;14.93;;;10.20;99.90;;;;;;7369457;19;20030;-63
2023/05/06 02:29:58;;;;;;;14.98;13.57;;;10.20;99.90;;;;;;7371337;19;20023;-63
2023/05/06 02:32:24;;;;;;;16.00;14.43;;;10.20;99.90;;;;;;7370673;19;20038;-62
2023/05/06 02:34:53;;;;;;;15.57;14.05;;;10.20;99.90;;;;;;7371000;19;20042;-63
2023/05/06 02:37:21;;;;;;;21.50;14.60;;;10.10;99.90;;;;;;7364452;19;20025;-62
2023/05/06 02:39:49;;;;;;;18.00;14.45;;;10.10;99.90;;;;;;7371412;19;20042;-62
2023/05/06 02:42:15;;;;;;;15.35;13.35;;;10.10;99.90;;;;;;7372162;19;20133;-64
2023/05/06 02:44:41;;;;;;;15.15;13.60;;;10.10;99.90;;;;;;7368748;19;20902;-63
2023/05/06 02:47:08;;;;;;;14.38;12.70;;;10.00;99.90;;;;;;7373768;19;20410;-63
2023/05/06 02:49:34;;;;;;;16.63;14.13;;;10.00;99.90;;;;;;7369472;19;20050;-64
2023/05/06 02:52:01;;;;;;;14.80;13.05;;;9.90;99.90;;;;;;7373231;19;20014;-62
2023/05/06 02:54:27;;;;;;;13.55;12.15;;;9.80;99.90;;;;;;7370341;19;20491;-62
2023/05/06 02:56:54;;;;;;;13.70;12.18;;;9.80;99.90;;;;;;7371566;19;20088;-62
2023/05/06 02:59:21;;;;;;;14.70;13.00;;;9.70;99.90;;;;;;7371792;19;20034;-66
2023/05/06 03:01:47;;;;;;;12.02;10.70;;;9.60;99.90;;;;;;7373985;19;20193;-64
2023/05/06 03:04:14;;;;;;;69.55;14.05;;;9.60;99.90;;;;;;7373933;19;20019;-63
2023/05/06 03:06:40;;;;;;;153.85;17.08;;;9.50;99.90;;;;;;7371164;19;20034;-63
2023/05/06 03:09:07;;;;;;;175.10;19.83;;;9.40;99.90;;;;;;7371700;19;20026;-64
2023/05/06 03:11:34;;;;;;;143.60;16.80;;;9.30;99.90;;;;;;7371073;19;20022;-64
2023/05/06 03:14:03;;;;;;;126.88;17.33;;;9.30;99.90;;;;;;7368738;19;20025;-64
2023/05/06 03:16:30;;;;;;;120.80;17.33;;;9.20;99.90;;;;;;7362670;19;20029;-62
2023/05/06 03:18:58;;;;;;;119.78;18.25;;;9.20;99.90;;;;;;7370019;19;20022;-64
2023/05/06 03:21:25;;;;;;;85.47;16.75;;;9.10;99.90;;;;;;7363676;19;20017;-63
2023/05/06 03:23:52;;;;;;;40.53;13.52;;;9.10;99.90;;;;;;7372090;19;20389;-64
2023/05/06 03:26:22;;;;;;;47.53;14.38;;;9.00;99.90;;;;;;7367664;19;20022;-62
2023/05/06 03:28:49;;;;;;;27.52;11.68;;;9.00;99.90;;;;;;7368034;19;20032;-62
2023/05/06 03:31:18;;;;;;;14.70;10.73;;;8.90;99.90;;;;;;7371670;19;21506;-62
2023/05/06 03:33:44;;;;;;;11.32;10.15;;;8.90;99.90;;;;;;7369346;19;20078;-61
2023/05/06 03:36:12;;;;;;;10.38;9.35;;;8.90;99.90;;;;;;7366310;19;20086;-62
2023/05/06 03:38:41;;;;;;;9.13;8.32;;;8.90;99.90;;;;;;7371888;19;20023;-62
2023/05/06 03:41:08;;;;;;;9.82;8.82;;;8.80;99.90;;;;;;7370325;19;20027;-61
2023/05/06 03:43:35;;;;;;;9.57;8.57;;;8.80;99.90;;;;;;7370234;19;20124;-61
2023/05/06 03:46:03;;;;;;;9.23;8.38;;;8.80;99.90;;;;;;7369546;19;20111;-63
2023/05/06 03:48:32;;;;;;;9.43;8.52;;;8.70;99.90;;;;;;7370567;19;20010;-64
2023/05/06 03:50:58;;;;;;;9.82;8.15;;;8.70;99.90;;;;;;7370653;19;20028;-62
2023/05/06 03:53:26;;;;;;;9.95;9.02;;;8.70;99.90;;;;;;7370826;19;20018;-62
2023/05/06 03:55:53;;;;;;;11.63;10.43;;;8.70;99.90;;;;;;7369721;19;20014;-61
2023/05/06 03:58:20;;;;;;;10.60;9.50;;;8.70;99.90;;;;;;7369807;19;20027;-61
2023/05/06 04:00:55;;;;;;;11.68;9.63;;;8.70;99.90;;;;;;7370301;19;20650;-62
2023/05/06 04:03:21;;;;;;;12.43;10.68;;;8.70;99.90;;;;;;7370969;19;20026;-62
2023/05/06 04:05:52;;;;;;;14.50;12.48;;;8.70;99.90;;;;;;7366213;19;20056;-63
2023/05/06 04:08:23;;;;;;;14.23;12.23;;;8.80;99.90;;;;;;7371112;19;20022;-63
2023/05/06 04:10:49;;;;;;;19.67;14.57;;;8.80;99.90;;;;;;7366897;19;20018;-64
2023/05/06 04:13:31;;;;;;;19.67;15.18;;;8.80;99.90;;;;;;7366315;19;20044;-63
2023/05/06 04:16:01;;;;;;;30.73;17.52;;;8.90;99.90;;;;;;7368627;19;20751;-63
2023/05/06 04:18:35;;;;;;;53.28;20.15;;;8.90;99.90;;;;;;7368096;19;20494;-64
2023/05/06 04:21:10;;;;;;;69.97;19.77;;;9.00;99.90;;;;;;7370564;19;20027;-64
2023/05/06 04:23:38;;;;;;;57.45;20.67;;;9.00;99.90;;;;;;7365999;19;20022;-64
2023/05/06 04:26:09;;;;;;;31.05;19.70;;;9.10;99.90;;;;;;7367229;19;20348;-63
2023/05/06 04:28:39;;;;;;;61.50;22.20;;;9.10;99.90;;;;;;7367160;19;20025;-64
2023/05/06 04:31:07;;;;;;;55.58;22.33;;;9.10;99.90;;;;;;7363443;19;20023;-64
2023/05/06 04:33:42;;;;;;;48.03;22.75;;;9.20;99.90;;;;;;7364484;19;20029;-64
2023/05/06 04:36:16;;;;;;;57.83;24.00;;;9.20;99.90;;;;;;7367363;19;20033;-64
2023/05/06 04:39:05;;;;;;;84.97;23.63;;;9.30;99.90;;;;;;7365320;19;20022;-63
2023/05/06 04:41:32;;;;;;;108.18;24.85;;;9.40;99.90;;;;;;7359776;19;20026;-64
2023/05/06 04:44:02;;;;;;;175.15;32.72;;;9.50;99.90;;;;;;7367986;19;20030;-63
2023/05/06 04:46:29;;;;;;;132.82;31.42;;;9.60;99.90;;;;;;7363320;19;20114;-63
2023/05/06 04:48:57;;;;;;;68.43;24.40;;;9.60;99.90;;;;;;7361488;19;20042;-63
2023/05/06 04:51:23;;;;;;;64.53;22.77;;;9.60;99.90;;;;;;7365501;19;20014;-62
2023/05/06 04:53:51;;;;;;;64.68;27.77;;;9.70;99.90;;;;;;7362903;19;20022;-64
2023/05/06 04:56:18;;;;;;;66.13;28.30;;;9.80;99.90;;;;;;7371192;19;20022;-62
2023/05/06 04:58:47;;;;;;;47.08;23.05;;;9.90;99.90;;;;;;7369814;19;20940;-62
2023/05/06 05:01:14;;;;;;;50.22;23.83;;;9.90;99.90;;;;;;7367418;19;20025;-63
2023/05/06 05:03:40;;;;;;;26.92;23.00;;;10.00;99.90;;;;;;7367771;19;20019;-61
2023/05/06 05:06:08;;;;;;;24.67;18.83;;;10.10;99.90;;;;;;7365711;19;20023;-62
2023/05/06 05:08:35;;;;;;;25.77;21.27;;;10.20;99.90;;;;;;7369498;19;20029;-62
2023/05/06 05:11:02;;;;;;;27.00;18.63;;;10.30;99.90;;;;;;7368218;19;20093;-61
2023/05/06 05:13:30;;;;;;;38.33;18.52;;;10.40;99.90;;;;;;7368449;19;20026;-62
2023/05/06 05:15:57;;;;;;;33.85;19.77;;;10.60;99.90;;;;;;7368035;19;20056;-63
2023/05/06 05:18:28;;;;;;;60.47;19.23;;;10.60;99.90;;;;;;7367621;19;20664;-62
2023/05/06 05:20:57;;;;;;;36.55;19.13;;;10.70;99.90;;;;;;7367523;19;20015;-62
2023/05/06 05:23:24;;;;;;;33.50;20.02;;;10.70;99.90;;;;;;7364514;19;20639;-61
2023/05/06 05:25:50;;;;;;;28.55;18.05;;;10.70;99.90;;;;;;7366920;19;20033;-63
2023/05/06 05:28:17;;;;;;;59.67;22.67;;;10.70;99.90;;;;;;7365021;19;20656;-63
2023/05/06 05:30:44;;;;;;;31.85;20.67;;;10.80;99.90;;;;;;7365934;19;20022;-63
2023/05/06 05:33:10;;;;;;;33.47;22.55;;;10.90;99.90;;;;;;7359009;19;20271;-62
2023/05/06 05:35:37;;;;;;;33.65;21.35;;;11.10;99.90;;;;;;7361669;19;20025;-63
2023/05/06 05:38:03;;;;;;;25.13;20.00;;;11.40;99.90;;;;;;7366468;19;20033;-64
2023/05/06 05:40:30;;;;;;;22.60;19.85;;;11.70;99.90;;;;;;7363641;19;20010;-64
2023/05/06 05:42:56;;;;;;;22.45;18.88;;;11.90;99.90;;;;;;7376835;19;20029;-62
2023/05/06 05:45:29;;;;;;;23.30;19.73;;;12.00;99.90;;;;;;7371655;19;20023;-64
2023/05/06 05:47:56;;;;;;;22.52;19.73;;;12.20;99.90;;;;;;7372159;19;20074;-62
2023/05/06 05:50:24;;;;;;;19.85;17.75;;;12.30;99.90;;;;;;7365567;19;20018;-62
2023/05/06 05:52:52;;;;;;;22.30;19.60;;;12.30;99.90;;;;;;7372744;19;20025;-62
2023/05/06 05:55:19;;;;;;;20.15;18.00;;;12.40;99.90;;;;;;7374673;19;20058;-62
2023/05/06 05:57:47;;;;;;;19.23;16.70;;;12.40;99.90;;;;;;7371497;19;20042;-62
2023/05/06 06:00:17;;;;;;;19.58;16.30;;;12.30;99.90;;;;;;7373281;19;20018;-63
2023/05/06 06:02:44;;;;;;;19.30;17.20;;;12.40;99.90;;;;;;7372369;19;20032;-62
2023/05/06 06:05:13;;;;;;;18.33;16.45;;;12.30;99.90;;;;;;7370564;19;20051;-62
2023/05/06 06:07:59;;;;;;;18.10;15.75;;;12.40;99.90;;;;;;7365702;19;20528;-63
2023/05/06 06:10:47;;;;;;;19.27;17.38;;;12.40;99.90;;;;;;7364761;19;20863;-64
2023/05/06 06:13:18;;;;;;;19.67;17.60;;;12.50;99.90;;;;;;7368136;19;20038;-65
2023/05/06 06:15:45;;;;;;;20.15;17.77;;;12.60;99.90;;;;;;7368499;19;20600;-63
2023/05/06 06:18:11;;;;;;;22.40;19.00;;;12.70;99.90;;;;;;7372822;19;20026;-62
2023/05/06 06:20:38;;;;;;;20.15;17.65;;;12.90;99.90;;;;;;7373805;19;20106;-62
2023/05/06 06:23:05;;;;;;;22.13;19.23;;;13.10;99.90;;;;;;7370034;19;20086;-62
2023/05/06 06:25:31;;;;;;;20.15;18.05;;;13.40;99.90;;;;;;7370060;19;20026;-63
2023/05/06 06:27:58;;;;;;;19.02;17.02;;;13.50;99.90;;;;;;7373973;19;20014;-63
2023/05/06 06:30:24;;;;;;;19.95;17.90;;;13.70;99.90;;;;;;7374447;19;20052;-64
2023/05/06 06:32:52;;;;;;;17.15;15.27;;;13.90;99.90;;;;;;7370336;19;20029;-63
2023/05/06 06:35:19;;;;;;;14.98;13.48;;;14.20;99.90;;;;;;7370070;19;20015;-63
2023/05/06 06:37:49;;;;;;;16.33;14.63;;;14.60;99.90;;;;;;7368623;19;20015;-65
2023/05/06 06:40:16;;;;;;;15.80;14.20;;;15.00;99.90;;;;;;7373625;19;20597;-65
2023/05/06 06:42:43;;;;;;;14.25;12.77;;;15.20;99.90;;;;;;7370302;19;20411;-66
2023/05/06 06:45:48;;;;;;;14.52;13.13;;;15.10;99.90;;;;;;7364425;19;20034;-65
2023/05/06 06:48:15;;;;;;;14.98;13.38;;;14.90;99.90;;;;;;7367039;19;20058;-65
2023/05/06 06:50:42;;;;;;;14.60;13.15;;;14.80;99.90;;;;;;7367158;19;20712;-64
2023/05/06 06:53:09;;;;;;;13.40;12.00;;;14.70;99.90;;;;;;7364261;19;20026;-64
2023/05/06 06:55:44;;;;;;;15.25;13.70;;;14.50;99.90;;;;;;7370526;19;20029;-65
2023/05/06 06:58:32;;;;;;;15.85;14.10;;;14.40;99.90;;;;;;7371406;19;20033;-65
2023/05/06 07:01:19;;;;;;;15.93;14.23;;;14.30;99.90;;;;;;7371474;19;20015;-65
2023/05/06 07:03:46;;;;;;;14.00;12.63;;;14.30;99.90;;;;;;7366005;19;20952;-63
2023/05/06 07:06:15;;;;;;;13.73;12.35;;;14.20;99.90;;;;;;7373383;19;20959;-61
2023/05/06 07:08:44;;;;;;;15.00;13.40;;;14.30;99.90;;;;;;7370704;19;20018;-65
2023/05/06 07:11:13;;;;;;;14.13;12.65;;;14.30;99.90;;;;;;7370803;19;20363;-64
2023/05/06 07:13:39;;;;;;;14.20;12.80;;;14.30;99.90;;;;;;7365588;19;20019;-64
2023/05/06 07:16:06;;;;;;;14.02;12.50;;;14.30;99.90;;;;;;7371313;19;20514;-65
2023/05/06 07:18:32;;;;;;;14.45;13.05;;;14.40;99.90;;;;;;7373247;19;20015;-65
2023/05/06 07:20:59;;;;;;;16.67;14.90;;;14.30;99.90;;;;;;7371022;19;20015;-64
2023/05/06 07:23:26;;;;;;;15.70;14.20;;;14.30;99.90;;;;;;7367942;19;20018;-64
2023/05/06 07:25:53;;;;;;;15.50;13.90;;;14.30;99.90;;;;;;7364980;19;20021;-64
2023/05/06 07:28:19;;;;;;;14.60;13.10;;;14.40;99.90;;;;;;7367482;19;20029;-64
2023/05/06 07:30:50;;;;;;;15.18;13.68;;;14.40;99.90;;;;;;7368136;19;20038;-65
2023/05/06 07:33:16;;;;;;;16.15;14.23;;;14.40;99.90;;;;;;7366773;19;20019;-64
2023/05/06 07:35:43;;;;;;;15.10;13.50;;;14.40;99.90;;;;;;7366860;19;20038;-64
2023/05/06 07:38:09;;;;;;;14.82;13.23;;;14.50;99.90;;;;;;7367741;19;20014;-64
2023/05/06 07:40:36;;;;;;;16.05;14.35;;;14.40;99.90;;;;;;7354740;19;20018;-65
2023/05/06 07:43:02;;;;;;;15.88;14.18;;;14.40;99.90;;;;;;7369013;19;20030;-65
2023/05/06 07:45:29;;;;;;;15.73;14.05;;;14.50;99.90;;;;;;7371267;19;20022;-65
2023/05/06 07:47:56;;;;;;;18.95;15.35;;;14.60;99.90;;;;;;7366797;19;20031;-65
2023/05/06 07:50:22;;;;;;;16.33;14.65;;;15.20;99.90;;;;;;7369702;19;20025;-65
2023/05/06 07:52:49;;;;;;;17.83;15.23;;;15.90;99.90;;;;;;7367914;19;20018;-64
2023/05/06 07:55:17;;;;;;;15.60;13.90;;;16.80;99.90;;;;;;7367792;19;20022;-65
2023/05/06 07:57:45;;;;;;;14.52;13.02;;;17.60;99.90;;;;;;7370317;19;20102;-65
2023/05/06 08:00:12;;;;;;;16.33;13.07;;;18.00;99.90;;;;;;7367973;19;20023;-64
2023/05/06 08:02:46;;;;;;;13.52;12.23;;;18.30;99.90;;;;;;7365591;19;20030;-63
2023/05/06 08:05:16;;;;;;;13.90;12.40;;;19.00;99.90;;;;;;7367366;19;20022;-66
2023/05/06 08:07:43;;;;;;;16.33;12.45;;;19.00;99.90;;;;;;7369744;19;20027;-66
2023/05/06 08:10:09;;;;;;;17.23;13.20;;;18.70;99.90;;;;;;7372751;19;20018;-70
2023/05/06 08:12:36;;;;;;;31.45;28.30;;;18.80;99.90;;;;;;7371444;19;20047;-70
2023/05/06 08:15:04;;;;;;;16.50;14.35;;;19.00;99.90;;;;;;7352182;19;20053;-62
2023/05/06 08:17:31;;;;;;;20.52;17.50;;;19.20;99.90;;;;;;7355204;19;20081;-61
2023/05/06 08:19:57;;;;;;;29.00;26.05;;;19.30;99.90;;;;;;7359212;19;20062;-62
2023/05/06 08:22:24;;;;;;;17.33;14.98;;;19.70;99.90;;;;;;7365353;19;20069;-73
2023/05/06 08:24:53;;;;;;;23.38;19.77;;;20.00;99.90;;;;;;7362429;19;20038;-72
2023/05/06 08:27:20;;;;;;;32.97;29.55;;;20.30;99.90;;;;;;7368356;19;20029;-61
2023/05/06 08:29:47;;;;;;;21.25;19.00;;;20.50;99.90;;;;;;7369713;19;20032;-73
2023/05/06 08:32:14;;;;;;;21.42;18.48;;;20.70;99.90;;;;;;7366060;19;20015;-61
2023/05/06 08:34:40;;;;;;;19.33;16.25;;;20.60;99.90;;;;;;7360031;19;20043;-60
2023/05/06 08:37:07;;;;;;;22.75;20.35;;;21.00;99.90;;;;;;7365494;19;20850;-61
2023/05/06 08:39:34;;;;;;;33.33;29.73;;;21.00;99.90;;;;;;7360593;19;20022;-61
2023/05/06 08:42:02;;;;;;;42.92;38.70;;;21.00;99.90;;;;;;7367930;19;20026;-72
2023/05/06 08:44:29;;;;;;;19.38;15.63;;;21.20;99.90;;;;;;7366625;19;20490;-70
2023/05/06 08:46:56;;;;;;;20.08;17.75;;;21.40;99.90;;;;;;7349151;19;20026;-69
2023/05/06 08:49:22;;;;;;;19.92;16.35;;;21.50;99.90;;;;;;7351362;19;20020;-61
2023/05/06 08:51:54;;;;;;;17.70;14.43;;;21.50;99.90;;;;;;7355381;19;20498;-62
2023/05/06 08:54:23;;;;;;;15.50;13.15;;;21.70;99.90;;;;;;7368176;19;20026;-72
2023/05/06 08:56:56;;;;;;;15.13;12.45;;;22.00;99.90;;;;;;7364534;19;20049;-69
2023/05/06 08:59:24;;;;;;;16.13;13.82;;;21.90;99.90;;;;;;7367606;19;20085;-62
2023/05/06 09:01:52;;;;;;;16.50;14.20;;;22.40;99.90;;;;;;7364296;19;20577;-72
2023/05/06 09:04:19;;;;;;;12.70;9.93;;;22.20;99.90;;;;;;7366421;19;20743;-61
2023/05/06 09:06:46;;;;;;;14.30;11.25;;;22.20;99.90;;;;;;7367601;19;20503;-61
2023/05/06 09:09:13;;;;;;;15.70;13.60;;;22.10;99.90;;;;;;7351458;19;20078;-71
2023/05/06 09:11:41;;;;;;;25.90;23.13;;;22.40;99.90;;;;;;7369382;19;20018;-70
2023/05/06 09:14:13;;;;;;;14.82;13.32;;;22.50;99.90;;;;;;7368539;19;20077;-60
2023/05/06 09:16:45;;;;;;;22.83;20.42;;;22.30;99.90;;;;;;7367114;19;20026;-70
2023/05/06 09:19:13;;;;;;;18.92;15.20;;;22.00;99.90;;;;;;7370921;19;20026;-61
2023/05/06 09:21:41;;;;;;;19.27;14.73;;;21.50;99.90;;;;;;7368478;19;20022;-60
2023/05/06 09:24:09;;;;;;;19.15;16.25;;;21.60;99.90;;;;;;7365837;19;20078;-69
2023/05/06 09:26:38;;;;;;;21.63;18.70;;;21.60;99.90;;;;;;7372667;19;20127;-70
2023/05/06 09:29:05;;;;;;;24.17;21.52;;;21.40;99.90;;;;;;7367605;19;20025;-69
2023/05/06 09:31:32;;;;;;;19.83;17.67;;;21.90;99.90;;;;;;7370341;19;20057;-68
2023/05/06 09:33:59;;;;;;;22.05;18.35;;;22.40;99.90;;;;;;7368566;19;20022;-70
2023/05/06 09:36:32;;;;;;;24.33;21.85;;;22.60;99.90;;;;;;7369298;19;20022;-69
2023/05/06 09:39:04;;;;;;;15.20;12.43;;;22.80;99.90;;;;;;7367258;19;20033;-70
2023/05/06 09:41:31;;;;;;;20.10;18.00;;;22.70;99.90;;;;;;7365315;19;20015;-61
2023/05/06 09:43:58;;;;;;;17.85;15.73;;;22.80;99.90;;;;;;7366884;19;20069;-61
2023/05/06 09:46:28;;;;;;;15.13;12.90;;;23.20;97.70;;;;;;7362348;19;20078;-69
2023/05/06 09:48:56;;;;;;;18.35;14.30;;;22.90;97.20;;;;;;7353387;19;20010;-70
2023/05/06 09:51:27;;;;;;;17.38;15.30;;;23.10;99.90;;;;;;7357239;19;20387;-70
2023/05/06 09:53:56;;;;;;;18.23;15.43;;;22.60;99.90;;;;;;7351750;19;20022;-61
2023/05/06 09:56:23;;;;;;;18.05;15.82;;;22.90;99.90;;;;;;7362828;19;20022;-61
2023/05/06 09:58:51;;;;;;;18.10;14.85;;;23.10;99.90;;;;;;7367384;19;20414;-61
2023/05/06 10:01:18;;;;;;;17.30;15.48;;;22.90;99.90;;;;;;7369144;19;20056;-60
2023/05/06 10:03:44;;;;;;;19.48;15.55;;;22.80;99.90;;;;;;7366509;19;20863;-61
2023/05/06 10:06:12;;;;;;;21.02;18.83;;;22.80;99.90;;;;;;7366022;19;20014;-61
2023/05/06 10:08:40;;;;;;;20.35;17.38;;;22.80;99.90;;;;;;7365067;19;20018;-69
2023/05/06 10:11:07;;;;;;;17.30;13.15;;;23.00;99.90;;;;;;7369549;19;20022;-69
2023/05/06 10:13:35;;;;;;;18.88;14.43;;;23.40;99.90;;;;;;7361564;19;20023;-69
2023/05/06 10:16:04;;;;;;;18.40;15.25;;;23.60;98.40;;;;;;7360305;19;20391;-70
2023/05/06 10:18:33;;;;;;;17.23;15.43;;;23.70;97.60;;;;;;7368300;19;20060;-61
2023/05/06 10:21:02;;;;;;;17.33;14.95;;;22.90;99.90;;;;;;7362463;19;20014;-69
2023/05/06 10:23:43;;;;;;;22.60;20.35;;;22.70;95.80;;;;;;7367585;19;20018;-61
2023/05/06 10:26:11;;;;;;;16.88;14.73;;;22.40;99.90;;;;;;7352524;19;20054;-70
2023/05/06 10:28:51;;;;;;;15.90;13.68;;;22.10;99.90;;;;;;7355053;19;20837;-69
2023/05/06 10:31:18;;;;;;;13.77;11.18;;;22.00;99.10;;;;;;7366070;19;20018;-61
2023/05/06 10:33:51;;;;;;;12.80;10.13;;;22.40;99.50;;;;;;7366458;19;20024;-69
2023/05/06 10:36:20;;;;;;;11.80;8.45;;;22.50;99.70;;;;;;7368972;19;20025;-69
2023/05/06 10:38:53;;;;;;;11.25;7.95;;;22.30;98.40;;;;;;7365500;19;20061;-69
2023/05/06 10:41:22;;;;;;;10.20;8.93;;;22.10;92.40;;;;;;7372461;19;20010;-60
2023/05/06 10:43:55;;;;;;;11.70;9.20;;;21.70;93.00;;;;;;7366741;19;20043;-69
2023/05/06 10:46:25;;;;;;;;;;;21.50;99.90;;;;;;7370352;19;20029;-69
2023/05/06 10:49:07;;;;;;;10.57;9.10;;;21.10;99.90;;;;;;7369431;19;19925;-60
2023/05/06 10:51:36;;;;;;;8.75;7.55;;;21.60;99.90;;;;;;7369535;19;20019;-61
2023/05/06 10:54:05;;;;;;;10.07;8.82;;;22.00;99.90;;;;;;7365099;19;20219;-61
2023/05/06 10:56:59;;;;;;;10.88;9.15;;;22.10;99.90;;;;;;7368249;19;20018;-61
2023/05/06 10:59:36;;;;;;;10.00;9.00;;;22.10;99.90;;;;;;7370103;19;20019;-70
2023/05/06 11:02:03;;;;;;;12.57;9.57;;;21.80;99.90;;;;;;7369402;19;20482;-69
2023/05/06 11:04:30;;;;;;;11.63;9.68;;;21.50;99.80;;;;;;7365980;19;20015;-60
2023/05/06 11:07:09;;;;;;;12.52;10.50;;;21.20;99.90;;;;;;7372037;19;20010;-60
2023/05/06 11:09:57;;;;;;;11.70;9.75;;;20.80;99.90;;;;;;7373073;19;20022;-69
2023/05/06 11:12:45;;;;;;;11.20;10.07;;;21.00;99.90;;;;;;7371902;19;20146;-60
2023/05/06 11:15:39;;;;;;;13.93;12.20;;;21.00;99.90;;;;;;7369198;19;20025;-60
2023/05/06 11:18:41;;;;;;;11.93;10.35;;;20.80;99.90;;;;;;7369167;19;20022;-69
2023/05/06 11:21:07;;;;;;;15.15;12.48;;;20.80;99.90;;;;;;7367464;19;20019;-69
2023/05/06 11:23:48;;;;;;;12.45;10.10;;;20.70;99.90;;;;;;7368462;19;20031;-60
2023/05/06 11:26:15;;;;;;;12.48;10.27;;;20.70;99.90;;;;;;7357914;19;20105;-69
2023/05/06 11:28:47;;;;;;;12.45;10.18;;;20.60;99.90;;;;;;7355441;19;20025;-59
2023/05/06 11:31:14;;;;;;;;;;;20.50;99.90;;;;;;7366904;19;20022;-61
2023/05/06 11:33:53;;;;;;;13.32;10.68;;;20.40;99.90;;;;;;7367081;19;20288;-60
2023/05/06 11:36:20;;;;;;;13.23;11.82;;;20.20;99.90;;;;;;7368702;19;20056;-69
2023/05/06 11:38:49;;;;;;;13.25;11.15;;;20.10;99.90;;;;;;7369320;19;20591;-60
2023/05/06 11:41:16;;;;;;;13.63;12.25;;;20.10;99.90;;;;;;7372142;19;20026;-69
2023/05/06 11:43:50;;;;;;;13.55;11.82;;;19.90;99.90;;;;;;7366988;19;20330;-69
2023/05/06 11:46:18;;;;;;;13.98;12.02;;;20.10;99.90;;;;;;7370060;19;20022;-60
2023/05/06 11:48:44;;;;;;;12.48;11.18;;;20.40;99.90;;;;;;7367932;19;20573;-68
2023/05/06 11:51:10;;;;;;;13.52;11.50;;;20.50;99.90;;;;;;7368068;19;20042;-68
2023/05/06 11:53:40;;;;;;;13.50;11.40;;;20.50;99.90;;;;;;7364456;19;20732;-68
2023/05/06 11:56:06;;;;;;;14.18;10.75;;;20.60;99.90;;;;;;7369021;19;20488;-60
2023/05/06 11:58:33;;;;;;;13.45;10.52;;;20.50;99.90;;;;;;7367163;19;20030;-68
2023/05/06 12:01:01;;;;;;;14.13;10.93;;;20.70;99.90;;;;;;7369976;19;20027;-68
2023/05/06 12:03:30;;;;;;;18.23;16.38;;;20.70;99.90;;;;;;7364025;19;20497;-68
2023/05/06 12:05:57;;;;;;;12.52;10.45;;;20.90;99.90;;;;;;7364685;19;20023;-68
2023/05/06 12:08:42;;;;;;;18.65;16.63;;;21.00;99.90;;;;;;7365234;19;20014;-68
2023/05/06 12:11:10;;;;;;;14.05;11.38;;;21.50;99.90;;;;;;7370487;19;20033;-69
2023/05/06 12:13:37;;;;;;;13.13;11.73;;;21.80;99.90;;;;;;7371915;19;20019;-60
2023/05/06 12:16:06;;;;;;;12.30;10.82;;;21.70;99.90;;;;;;7371352;19;20089;-60
2023/05/06 12:18:35;;;;;;;12.15;9.82;;;21.60;99.90;;;;;;7371350;19;20795;-60
2023/05/06 12:21:03;;;;;;;13.05;11.02;;;21.50;99.90;;;;;;7369588;19;20554;-60
2023/05/06 12:23:32;;;;;;;12.00;9.82;;;21.30;99.90;;;;;;7370671;19;20026;-59
2023/05/06 12:26:02;;;;;;;11.35;9.27;;;21.30;99.90;;;;;;7366301;19;20019;-60
2023/05/06 12:28:30;;;;;;;15.27;10.68;;;21.10;99.90;;;;;;7371414;19;20022;-60
2023/05/06 12:30:57;;;;;;;12.45;9.98;;;21.10;99.90;;;;;;7368060;19;20022;-69
2023/05/06 12:33:23;;;;;;;11.75;9.98;;;21.00;99.90;;;;;;7366410;19;20023;-64
2023/05/06 12:35:53;;;;;;;14.57;10.70;;;21.00;99.90;;;;;;7359974;19;20374;-67
2023/05/06 12:38:20;;;;;;;13.93;11.55;;;21.10;99.90;;;;;;7366441;19;20010;-65
2023/05/06 12:40:53;;;;;;;13.07;11.77;;;21.20;99.90;;;;;;7366700;19;20890;-65